sensor_id;sensor_type;location;lat;lon;timestamp;P1;durP1;ratioP1;P2;durP2;ratioP2
3613;SDS011;1821;50.936;6.854;2023-05-02T00:00:12;31.30;;;27.90;;
3613;SDS011;1821;50.936;6.854;2023-05-02T00:00:54;32.65;;;27.45;;
3613;SDS011;1821;50.936;6.854;2023-05-02T00:01:36;32.05;;;27.38;;
3613;SDS011;1821;50.936;6.854;2023-05-02T00:02:18;35.50;;;27.98;;
3613;SDS011;1821;50.936;6.854;2023-05-02T00:03:01;32.50;;;29.05;;
3613;SDS011;1821;50.936;6.854;2023-05-02T00:03:47;34.17;;;29.23;;
3613;SDS011;1821;50.936;6.854;2023-05-02T00:04:32;36.30;;;28.77;;
3613;SDS011;1821;50.936;6.854;2023-05-02T00:05:17;32.50;;;28.95;;
3613;SDS011;1821;50.936;6.854;2023-05-02T00:05:59;33.25;;;28.40;;
3613;SDS011;1821;50.936;6.854;2023-05-02T00:06:43;37.38;;;29.50;;
3613;SDS011;1821;50.936;6.854;2023-05-02T00:07:27;34.03;;;29.13;;
3613;SDS011;1821;50.936;6.854;2023-05-02T00:08:09;35.38;;;30.00;;
3613;SDS011;1821;50.936;6.854;2023-05-02T00:08:52;36.47;;;29.95;;
3613;SDS011;1821;50.936;6.854;2023-05-02T00:09:34;37.05;;;30.30;;
3613;SDS011;1821;50.936;6.854;2023-05-02T00:10:16;35.88;;;30.15;;
3613;SDS011;1821;50.936;6.854;2023-05-02T00:10:59;36.40;;;29.92;;
3613;SDS011;1821;50.936;6.854;2023-05-02T00:11:41;38.75;;;30.65;;
3613;SDS011;1821;50.936;6.854;2023-05-02T00:12:23;36.53;;;29.90;;
3613;SDS011;1821;50.936;6.854;2023-05-02T00:13:04;36.30;;;29.58;;
3613;SDS011;1821;50.936;6.854;2023-05-02T00:13:46;38.20;;;31.05;;
3613;SDS011;1821;50.936;6.854;2023-05-02T00:14:29;37.90;;;30.95;;
3613;SDS011;1821;50.936;6.854;2023-05-02T00:15:13;36.25;;;30.50;;
3613;SDS011;1821;50.936;6.854;2023-05-02T00:15:56;34.38;;;30.00;;
3613;SDS011;1821;50.936;6.854;2023-05-02T00:16:37;37.10;;;30.50;;
3613;SDS011;1821;50.936;6.854;2023-05-02T00:17:21;36.50;;;30.45;;
3613;SDS011;1821;50.936;6.854;2023-05-02T00:18:03;39.53;;;32.95;;
3613;SDS011;1821;50.936;6.854;2023-05-02T00:18:45;37.92;;;30.65;;
3613;SDS011;1821;50.936;6.854;2023-05-02T00:19:27;34.53;;;30.17;;
3613;SDS011;1821;50.936;6.854;2023-05-02T00:20:12;35.05;;;31.25;;
3613;SDS011;1821;50.936;6.854;2023-05-02T00:20:54;36.17;;;30.75;;
3613;SDS011;1821;50.936;6.854;2023-05-02T00:21:37;38.28;;;31.65;;
3613;SDS011;1821;50.936;6.854;2023-05-02T00:22:19;39.55;;;30.75;;
3613;SDS011;1821;50.936;6.854;2023-05-02T00:23:01;39.25;;;32.10;;
3613;SDS011;1821;50.936;6.854;2023-05-02T00:23:43;41.72;;;32.92;;
3613;SDS011;1821;50.936;6.854;2023-05-02T00:24:25;39.38;;;32.30;;
3613;SDS011;1821;50.936;6.854;2023-05-02T00:25:07;42.88;;;34.08;;
3613;SDS011;1821;50.936;6.854;2023-05-02T00:25:52;39.25;;;31.38;;
3613;SDS011;1821;50.936;6.854;2023-05-02T00:26:33;39.47;;;30.42;;
3613;SDS011;1821;50.936;6.854;2023-05-02T00:27:15;36.45;;;29.30;;
3613;SDS011;1821;50.936;6.854;2023-05-02T00:27:59;38.05;;;30.27;;
3613;SDS011;1821;50.936;6.854;2023-05-02T00:28:41;36.53;;;31.15;;
3613;SDS011;1821;50.936;6.854;2023-05-02T00:29:23;35.00;;;31.20;;
3613;SDS011;1821;50.936;6.854;2023-05-02T00:30:05;36.85;;;30.85;;
3613;SDS011;1821;50.936;6.854;2023-05-02T00:30:48;41.45;;;31.88;;
3613;SDS011;1821;50.936;6.854;2023-05-02T00:31:30;38.67;;;31.80;;
3613;SDS011;1821;50.936;6.854;2023-05-02T00:32:11;39.47;;;32.20;;
3613;SDS011;1821;50.936;6.854;2023-05-02T00:32:53;38.90;;;30.55;;
3613;SDS011;1821;50.936;6.854;2023-05-02T00:33:36;39.38;;;30.90;;
3613;SDS011;1821;50.936;6.854;2023-05-02T00:34:17;39.55;;;30.90;;
3613;SDS011;1821;50.936;6.854;2023-05-02T00:34:59;39.60;;;33.03;;
3613;SDS011;1821;50.936;6.854;2023-05-02T00:35:41;37.53;;;32.42;;
3613;SDS011;1821;50.936;6.854;2023-05-02T00:36:23;37.63;;;31.75;;
3613;SDS011;1821;50.936;6.854;2023-05-02T00:37:07;39.35;;;32.75;;
3613;SDS011;1821;50.936;6.854;2023-05-02T00:37:48;36.33;;;30.08;;
3613;SDS011;1821;50.936;6.854;2023-05-02T00:38:33;37.38;;;31.17;;
3613;SDS011;1821;50.936;6.854;2023-05-02T00:39:17;37.20;;;30.23;;
3613;SDS011;1821;50.936;6.854;2023-05-02T00:39:58;36.55;;;28.70;;
3613;SDS011;1821;50.936;6.854;2023-05-02T00:40:43;35.28;;;29.45;;
3613;SDS011;1821;50.936;6.854;2023-05-02T00:41:26;35.33;;;29.30;;
3613;SDS011;1821;50.936;6.854;2023-05-02T00:42:08;35.15;;;29.98;;
3613;SDS011;1821;50.936;6.854;2023-05-02T00:42:50;33.92;;;29.58;;
3613;SDS011;1821;50.936;6.854;2023-05-02T00:43:32;35.50;;;30.25;;
3613;SDS011;1821;50.936;6.854;2023-05-02T00:44:14;36.85;;;30.02;;
3613;SDS011;1821;50.936;6.854;2023-05-02T00:44:57;38.72;;;31.25;;
3613;SDS011;1821;50.936;6.854;2023-05-02T00:45:39;37.72;;;29.60;;
3613;SDS011;1821;50.936;6.854;2023-05-02T00:46:22;35.65;;;29.30;;
3613;SDS011;1821;50.936;6.854;2023-05-02T00:47:04;37.35;;;30.85;;
3613;SDS011;1821;50.936;6.854;2023-05-02T00:47:46;39.75;;;31.17;;
3613;SDS011;1821;50.936;6.854;2023-05-02T00:48:33;36.20;;;29.73;;
3613;SDS011;1821;50.936;6.854;2023-05-02T00:49:15;38.65;;;31.63;;
3613;SDS011;1821;50.936;6.854;2023-05-02T00:49:57;36.45;;;29.85;;
3613;SDS011;1821;50.936;6.854;2023-05-02T00:50:41;39.00;;;30.95;;
3613;SDS011;1821;50.936;6.854;2023-05-02T00:51:23;37.50;;;31.20;;
3613;SDS011;1821;50.936;6.854;2023-05-02T00:52:07;37.80;;;31.42;;
3613;SDS011;1821;50.936;6.854;2023-05-02T00:52:49;41.85;;;32.08;;
3613;SDS011;1821;50.936;6.854;2023-05-02T00:53:31;36.80;;;31.45;;
3613;SDS011;1821;50.936;6.854;2023-05-02T00:54:13;37.95;;;32.15;;
3613;SDS011;1821;50.936;6.854;2023-05-02T00:54:56;39.63;;;32.00;;
3613;SDS011;1821;50.936;6.854;2023-05-02T00:55:38;37.88;;;31.95;;
3613;SDS011;1821;50.936;6.854;2023-05-02T00:56:20;37.85;;;30.23;;
3613;SDS011;1821;50.936;6.854;2023-05-02T00:57:02;36.95;;;29.83;;
3613;SDS011;1821;50.936;6.854;2023-05-02T00:57:44;37.85;;;30.38;;
3613;SDS011;1821;50.936;6.854;2023-05-02T00:58:27;39.10;;;31.70;;
3613;SDS011;1821;50.936;6.854;2023-05-02T00:59:12;36.90;;;31.67;;
3613;SDS011;1821;50.936;6.854;2023-05-02T00:59:55;40.45;;;31.77;;
3613;SDS011;1821;50.936;6.854;2023-05-02T01:06:01;36.60;;;29.65;;
3613;SDS011;1821;50.936;6.854;2023-05-02T01:09:28;34.60;;;29.17;;
3613;SDS011;1821;50.936;6.854;2023-05-02T01:11:20;38.95;;;30.48;;
3613;SDS011;1821;50.936;6.854;2023-05-02T01:12:27;39.25;;;31.33;;
3613;SDS011;1821;50.936;6.854;2023-05-02T01:13:23;41.13;;;32.15;;
3613;SDS011;1821;50.936;6.854;2023-05-02T01:14:09;40.33;;;31.83;;
3613;SDS011;1821;50.936;6.854;2023-05-02T01:14:52;41.15;;;31.25;;
3613;SDS011;1821;50.936;6.854;2023-05-02T01:15:39;39.58;;;31.27;;
3613;SDS011;1821;50.936;6.854;2023-05-02T01:16:22;38.58;;;31.60;;
3613;SDS011;1821;50.936;6.854;2023-05-02T01:17:06;39.97;;;32.03;;
3613;SDS011;1821;50.936;6.854;2023-05-02T01:17:52;41.22;;;32.17;;
3613;SDS011;1821;50.936;6.854;2023-05-02T01:18:37;40.13;;;31.92;;
3613;SDS011;1821;50.936;6.854;2023-05-02T01:19:24;41.03;;;31.95;;
3613;SDS011;1821;50.936;6.854;2023-05-02T01:20:13;45.75;;;33.20;;
3613;SDS011;1821;50.936;6.854;2023-05-02T01:21:06;41.67;;;32.00;;
3613;SDS011;1821;50.936;6.854;2023-05-02T01:21:50;42.00;;;33.42;;
3613;SDS011;1821;50.936;6.854;2023-05-02T01:22:34;45.40;;;32.40;;
3613;SDS011;1821;50.936;6.854;2023-05-02T01:23:29;42.72;;;32.17;;
3613;SDS011;1821;50.936;6.854;2023-05-02T01:24:24;43.25;;;33.50;;
3613;SDS011;1821;50.936;6.854;2023-05-02T01:25:19;44.85;;;35.00;;
3613;SDS011;1821;50.936;6.854;2023-05-02T01:27:14;46.75;;;33.70;;
3613;SDS011;1821;50.936;6.854;2023-05-02T01:29:10;46.85;;;35.28;;
3613;SDS011;1821;50.936;6.854;2023-05-02T01:29:54;46.78;;;35.20;;
3613;SDS011;1821;50.936;6.854;2023-05-02T01:30:40;48.00;;;36.47;;
3613;SDS011;1821;50.936;6.854;2023-05-02T01:31:41;47.28;;;37.10;;
3613;SDS011;1821;50.936;6.854;2023-05-02T01:32:27;48.67;;;36.15;;
3613;SDS011;1821;50.936;6.854;2023-05-02T01:33:13;47.47;;;36.40;;
3613;SDS011;1821;50.936;6.854;2023-05-02T01:33:57;47.72;;;35.88;;
3613;SDS011;1821;50.936;6.854;2023-05-02T01:34:41;46.85;;;36.75;;
3613;SDS011;1821;50.936;6.854;2023-05-02T01:35:27;48.28;;;37.70;;
3613;SDS011;1821;50.936;6.854;2023-05-02T01:36:12;48.30;;;36.60;;
3613;SDS011;1821;50.936;6.854;2023-05-02T01:36:56;44.75;;;35.03;;
3613;SDS011;1821;50.936;6.854;2023-05-02T01:37:39;46.63;;;36.22;;
3613;SDS011;1821;50.936;6.854;2023-05-02T01:38:23;48.25;;;37.80;;
3613;SDS011;1821;50.936;6.854;2023-05-02T01:39:07;50.88;;;37.22;;
3613;SDS011;1821;50.936;6.854;2023-05-02T01:39:52;52.90;;;37.45;;
3613;SDS011;1821;50.936;6.854;2023-05-02T01:40:36;53.58;;;38.03;;
3613;SDS011;1821;50.936;6.854;2023-05-02T01:41:19;51.40;;;36.75;;
3613;SDS011;1821;50.936;6.854;2023-05-02T01:42:02;48.05;;;35.92;;
3613;SDS011;1821;50.936;6.854;2023-05-02T01:42:46;47.72;;;35.35;;
3613;SDS011;1821;50.936;6.854;2023-05-02T01:43:32;49.60;;;36.33;;
3613;SDS011;1821;50.936;6.854;2023-05-02T01:44:17;48.28;;;36.40;;
3613;SDS011;1821;50.936;6.854;2023-05-02T01:45:02;52.80;;;38.53;;
3613;SDS011;1821;50.936;6.854;2023-05-02T01:45:47;50.55;;;36.63;;
3613;SDS011;1821;50.936;6.854;2023-05-02T01:46:33;53.55;;;37.47;;
3613;SDS011;1821;50.936;6.854;2023-05-02T01:47:16;51.50;;;37.47;;
3613;SDS011;1821;50.936;6.854;2023-05-02T01:48:01;54.85;;;38.95;;
3613;SDS011;1821;50.936;6.854;2023-05-02T01:48:47;55.67;;;37.45;;
3613;SDS011;1821;50.936;6.854;2023-05-02T01:49:32;52.70;;;37.28;;
3613;SDS011;1821;50.936;6.854;2023-05-02T01:50:16;48.95;;;37.33;;
3613;SDS011;1821;50.936;6.854;2023-05-02T01:51:03;47.17;;;36.25;;
3613;SDS011;1821;50.936;6.854;2023-05-02T01:51:47;50.38;;;36.55;;
3613;SDS011;1821;50.936;6.854;2023-05-02T01:52:31;50.37;;;37.23;;
3613;SDS011;1821;50.936;6.854;2023-05-02T01:53:13;50.42;;;35.33;;
3613;SDS011;1821;50.936;6.854;2023-05-02T01:53:58;48.83;;;36.78;;
3613;SDS011;1821;50.936;6.854;2023-05-02T01:54:42;48.10;;;36.88;;
3613;SDS011;1821;50.936;6.854;2023-05-02T01:55:24;48.45;;;37.55;;
3613;SDS011;1821;50.936;6.854;2023-05-02T01:56:07;51.40;;;37.85;;
3613;SDS011;1821;50.936;6.854;2023-05-02T01:56:49;52.38;;;38.15;;
3613;SDS011;1821;50.936;6.854;2023-05-02T01:57:32;52.60;;;37.88;;
3613;SDS011;1821;50.936;6.854;2023-05-02T01:58:16;48.38;;;37.08;;
3613;SDS011;1821;50.936;6.854;2023-05-02T01:59:00;48.55;;;37.92;;
3613;SDS011;1821;50.936;6.854;2023-05-02T01:59:47;49.92;;;36.60;;
3613;SDS011;1821;50.936;6.854;2023-05-02T02:00:30;49.22;;;38.47;;
3613;SDS011;1821;50.936;6.854;2023-05-02T02:01:13;50.13;;;38.33;;
3613;SDS011;1821;50.936;6.854;2023-05-02T02:01:58;49.05;;;37.08;;
3613;SDS011;1821;50.936;6.854;2023-05-02T02:02:42;52.25;;;37.08;;
3613;SDS011;1821;50.936;6.854;2023-05-02T02:03:30;55.63;;;37.40;;
3613;SDS011;1821;50.936;6.854;2023-05-02T02:04:12;50.38;;;37.72;;
3613;SDS011;1821;50.936;6.854;2023-05-02T02:04:56;52.28;;;37.50;;
3613;SDS011;1821;50.936;6.854;2023-05-02T02:05:40;53.45;;;38.85;;
3613;SDS011;1821;50.936;6.854;2023-05-02T02:06:22;56.20;;;40.45;;
3613;SDS011;1821;50.936;6.854;2023-05-02T02:07:10;53.72;;;39.58;;
3613;SDS011;1821;50.936;6.854;2023-05-02T02:07:54;54.20;;;40.75;;
3613;SDS011;1821;50.936;6.854;2023-05-02T02:08:36;55.58;;;38.33;;
3613;SDS011;1821;50.936;6.854;2023-05-02T02:09:17;55.40;;;39.10;;
3613;SDS011;1821;50.936;6.854;2023-05-02T02:10:00;54.80;;;38.85;;
3613;SDS011;1821;50.936;6.854;2023-05-02T02:10:44;52.83;;;38.08;;
3613;SDS011;1821;50.936;6.854;2023-05-02T02:11:51;52.83;;;37.80;;
3613;SDS011;1821;50.936;6.854;2023-05-02T02:12:39;52.08;;;37.53;;
3613;SDS011;1821;50.936;6.854;2023-05-02T02:13:28;52.47;;;37.13;;
3613;SDS011;1821;50.936;6.854;2023-05-02T02:14:19;49.88;;;37.40;;
3613;SDS011;1821;50.936;6.854;2023-05-02T02:15:04;51.78;;;37.28;;
3613;SDS011;1821;50.936;6.854;2023-05-02T02:15:52;52.10;;;37.83;;
3613;SDS011;1821;50.936;6.854;2023-05-02T02:16:42;51.95;;;37.90;;
3613;SDS011;1821;50.936;6.854;2023-05-02T02:17:38;50.85;;;36.40;;
3613;SDS011;1821;50.936;6.854;2023-05-02T02:18:23;47.72;;;36.72;;
3613;SDS011;1821;50.936;6.854;2023-05-02T02:19:09;47.22;;;35.17;;
3613;SDS011;1821;50.936;6.854;2023-05-02T02:19:53;51.85;;;36.80;;
3613;SDS011;1821;50.936;6.854;2023-05-02T02:20:37;49.08;;;36.42;;
3613;SDS011;1821;50.936;6.854;2023-05-02T02:21:24;50.47;;;36.78;;
3613;SDS011;1821;50.936;6.854;2023-05-02T02:22:08;51.00;;;36.20;;
3613;SDS011;1821;50.936;6.854;2023-05-02T02:22:55;49.60;;;35.75;;
3613;SDS011;1821;50.936;6.854;2023-05-02T02:23:38;48.72;;;36.60;;
3613;SDS011;1821;50.936;6.854;2023-05-02T02:24:23;48.67;;;35.60;;
3613;SDS011;1821;50.936;6.854;2023-05-02T02:25:09;46.70;;;35.38;;
3613;SDS011;1821;50.936;6.854;2023-05-02T02:25:53;47.38;;;34.95;;
3613;SDS011;1821;50.936;6.854;2023-05-02T02:26:37;48.08;;;36.45;;
3613;SDS011;1821;50.936;6.854;2023-05-02T02:27:19;49.33;;;36.58;;
3613;SDS011;1821;50.936;6.854;2023-05-02T02:28:01;47.83;;;35.70;;
3613;SDS011;1821;50.936;6.854;2023-05-02T02:28:43;50.00;;;36.42;;
3613;SDS011;1821;50.936;6.854;2023-05-02T02:29:26;49.90;;;35.05;;
3613;SDS011;1821;50.936;6.854;2023-05-02T02:30:08;49.05;;;35.80;;
3613;SDS011;1821;50.936;6.854;2023-05-02T02:30:52;52.05;;;37.40;;
3613;SDS011;1821;50.936;6.854;2023-05-02T02:31:34;51.50;;;36.88;;
3613;SDS011;1821;50.936;6.854;2023-05-02T02:32:19;49.80;;;35.88;;
3613;SDS011;1821;50.936;6.854;2023-05-02T02:33:01;48.00;;;34.00;;
3613;SDS011;1821;50.936;6.854;2023-05-02T02:33:43;47.55;;;35.33;;
3613;SDS011;1821;50.936;6.854;2023-05-02T02:34:25;46.42;;;34.90;;
3613;SDS011;1821;50.936;6.854;2023-05-02T02:35:07;49.85;;;34.88;;
3613;SDS011;1821;50.936;6.854;2023-05-02T02:35:56;52.22;;;35.05;;
3613;SDS011;1821;50.936;6.854;2023-05-02T02:36:56;50.85;;;37.20;;
3613;SDS011;1821;50.936;6.854;2023-05-02T02:38:47;48.45;;;36.05;;
3613;SDS011;1821;50.936;6.854;2023-05-02T02:40:43;49.47;;;36.53;;
3613;SDS011;1821;50.936;6.854;2023-05-02T02:43:11;49.75;;;36.55;;
3613;SDS011;1821;50.936;6.854;2023-05-02T02:45:07;54.08;;;37.42;;
3613;SDS011;1821;50.936;6.854;2023-05-02T02:48:33;51.40;;;36.35;;
3613;SDS011;1821;50.936;6.854;2023-05-02T02:52:29;51.33;;;35.60;;
3613;SDS011;1821;50.936;6.854;2023-05-02T02:53:26;50.97;;;34.55;;
3613;SDS011;1821;50.936;6.854;2023-05-02T02:54:40;49.70;;;36.90;;
3613;SDS011;1821;50.936;6.854;2023-05-02T02:55:39;50.08;;;34.47;;
3613;SDS011;1821;50.936;6.854;2023-05-02T02:56:29;50.72;;;34.78;;
3613;SDS011;1821;50.936;6.854;2023-05-02T03:00:52;47.20;;;33.42;;
3613;SDS011;1821;50.936;6.854;2023-05-02T03:01:34;46.55;;;33.55;;
3613;SDS011;1821;50.936;6.854;2023-05-02T03:02:21;46.90;;;34.78;;
3613;SDS011;1821;50.936;6.854;2023-05-02T03:03:09;47.50;;;33.10;;
3613;SDS011;1821;50.936;6.854;2023-05-02T03:03:54;47.30;;;31.80;;
3613;SDS011;1821;50.936;6.854;2023-05-02T03:04:38;48.53;;;32.35;;
3613;SDS011;1821;50.936;6.854;2023-05-02T03:05:24;45.25;;;33.17;;
3613;SDS011;1821;50.936;6.854;2023-05-02T03:06:07;48.60;;;33.22;;
3613;SDS011;1821;50.936;6.854;2023-05-02T03:06:49;49.90;;;33.90;;
3613;SDS011;1821;50.936;6.854;2023-05-02T03:07:34;44.60;;;32.13;;
3613;SDS011;1821;50.936;6.854;2023-05-02T03:08:17;46.33;;;33.70;;
3613;SDS011;1821;50.936;6.854;2023-05-02T03:08:59;49.65;;;32.67;;
3613;SDS011;1821;50.936;6.854;2023-05-02T03:09:45;48.72;;;33.75;;
3613;SDS011;1821;50.936;6.854;2023-05-02T03:10:28;47.08;;;32.72;;
3613;SDS011;1821;50.936;6.854;2023-05-02T03:11:09;50.58;;;34.35;;
3613;SDS011;1821;50.936;6.854;2023-05-02T03:11:52;47.63;;;32.08;;
3613;SDS011;1821;50.936;6.854;2023-05-02T03:12:33;48.28;;;33.13;;
3613;SDS011;1821;50.936;6.854;2023-05-02T03:13:18;41.13;;;30.38;;
3613;SDS011;1821;50.936;6.854;2023-05-02T03:14:00;44.72;;;32.38;;
3613;SDS011;1821;50.936;6.854;2023-05-02T03:14:42;43.03;;;30.88;;
3613;SDS011;1821;50.936;6.854;2023-05-02T03:16:35;44.85;;;31.58;;
3613;SDS011;1821;50.936;6.854;2023-05-02T03:17:20;44.08;;;31.10;;
3613;SDS011;1821;50.936;6.854;2023-05-02T03:18:06;43.50;;;30.17;;
3613;SDS011;1821;50.936;6.854;2023-05-02T03:18:48;42.70;;;30.17;;
3613;SDS011;1821;50.936;6.854;2023-05-02T03:19:30;46.03;;;29.65;;
3613;SDS011;1821;50.936;6.854;2023-05-02T03:20:12;46.78;;;30.27;;
3613;SDS011;1821;50.936;6.854;2023-05-02T03:20:54;41.83;;;29.83;;
3613;SDS011;1821;50.936;6.854;2023-05-02T03:21:36;39.20;;;29.17;;
3613;SDS011;1821;50.936;6.854;2023-05-02T03:22:18;43.65;;;29.40;;
3613;SDS011;1821;50.936;6.854;2023-05-02T03:23:02;40.05;;;30.00;;
3613;SDS011;1821;50.936;6.854;2023-05-02T03:23:44;42.55;;;30.38;;
3613;SDS011;1821;50.936;6.854;2023-05-02T03:24:28;40.25;;;29.08;;
3613;SDS011;1821;50.936;6.854;2023-05-02T03:25:11;38.40;;;27.90;;
3613;SDS011;1821;50.936;6.854;2023-05-02T03:25:53;38.75;;;26.55;;
3613;SDS011;1821;50.936;6.854;2023-05-02T03:26:36;44.40;;;29.15;;
3613;SDS011;1821;50.936;6.854;2023-05-02T03:27:17;40.17;;;29.10;;
3613;SDS011;1821;50.936;6.854;2023-05-02T03:28:02;44.30;;;29.25;;
3613;SDS011;1821;50.936;6.854;2023-05-02T03:28:43;42.25;;;28.25;;
3613;SDS011;1821;50.936;6.854;2023-05-02T03:29:27;40.42;;;28.33;;
3613;SDS011;1821;50.936;6.854;2023-05-02T03:30:09;40.23;;;26.90;;
3613;SDS011;1821;50.936;6.854;2023-05-02T03:30:51;41.35;;;28.13;;
3613;SDS011;1821;50.936;6.854;2023-05-02T03:31:33;42.67;;;29.60;;
3613;SDS011;1821;50.936;6.854;2023-05-02T03:32:15;40.95;;;29.85;;
3613;SDS011;1821;50.936;6.854;2023-05-02T03:32:57;38.38;;;27.05;;
3613;SDS011;1821;50.936;6.854;2023-05-02T03:33:40;37.20;;;28.20;;
3613;SDS011;1821;50.936;6.854;2023-05-02T03:34:22;37.10;;;26.83;;
3613;SDS011;1821;50.936;6.854;2023-05-02T03:35:05;38.60;;;27.55;;
3613;SDS011;1821;50.936;6.854;2023-05-02T03:35:47;40.17;;;29.52;;
3613;SDS011;1821;50.936;6.854;2023-05-02T03:36:28;38.50;;;28.38;;
3613;SDS011;1821;50.936;6.854;2023-05-02T03:37:13;41.22;;;28.70;;
3613;SDS011;1821;50.936;6.854;2023-05-02T03:37:55;39.85;;;28.45;;
3613;SDS011;1821;50.936;6.854;2023-05-02T03:38:37;41.33;;;28.08;;
3613;SDS011;1821;50.936;6.854;2023-05-02T03:39:19;38.65;;;26.77;;
3613;SDS011;1821;50.936;6.854;2023-05-02T03:40:01;37.10;;;27.98;;
3613;SDS011;1821;50.936;6.854;2023-05-02T03:40:43;42.38;;;29.33;;
3613;SDS011;1821;50.936;6.854;2023-05-02T03:41:25;39.42;;;28.55;;
3613;SDS011;1821;50.936;6.854;2023-05-02T03:42:07;41.42;;;29.73;;
3613;SDS011;1821;50.936;6.854;2023-05-02T03:42:49;39.45;;;29.75;;
3613;SDS011;1821;50.936;6.854;2023-05-02T03:43:31;39.03;;;29.30;;
3613;SDS011;1821;50.936;6.854;2023-05-02T03:44:13;38.58;;;28.10;;
3613;SDS011;1821;50.936;6.854;2023-05-02T03:44:57;40.27;;;30.03;;
3613;SDS011;1821;50.936;6.854;2023-05-02T03:45:39;41.28;;;30.17;;
3613;SDS011;1821;50.936;6.854;2023-05-02T03:46:21;37.55;;;28.15;;
3613;SDS011;1821;50.936;6.854;2023-05-02T03:47:03;40.97;;;29.85;;
3613;SDS011;1821;50.936;6.854;2023-05-02T03:47:45;43.97;;;31.25;;
3613;SDS011;1821;50.936;6.854;2023-05-02T03:48:27;41.28;;;29.83;;
3613;SDS011;1821;50.936;6.854;2023-05-02T03:49:09;40.55;;;29.33;;
3613;SDS011;1821;50.936;6.854;2023-05-02T03:49:52;40.28;;;30.50;;
3613;SDS011;1821;50.936;6.854;2023-05-02T03:50:34;40.95;;;30.58;;
3613;SDS011;1821;50.936;6.854;2023-05-02T03:51:16;43.33;;;31.55;;
3613;SDS011;1821;50.936;6.854;2023-05-02T03:51:58;43.17;;;30.67;;
3613;SDS011;1821;50.936;6.854;2023-05-02T03:52:42;46.22;;;32.55;;
3613;SDS011;1821;50.936;6.854;2023-05-02T03:53:23;48.33;;;34.03;;
3613;SDS011;1821;50.936;6.854;2023-05-02T03:54:06;47.05;;;31.80;;
3613;SDS011;1821;50.936;6.854;2023-05-02T03:54:51;47.00;;;33.30;;
3613;SDS011;1821;50.936;6.854;2023-05-02T03:55:37;47.15;;;33.80;;
3613;SDS011;1821;50.936;6.854;2023-05-02T03:56:23;45.47;;;33.30;;
3613;SDS011;1821;50.936;6.854;2023-05-02T03:57:07;45.75;;;33.47;;
3613;SDS011;1821;50.936;6.854;2023-05-02T03:57:49;43.95;;;31.05;;
3613;SDS011;1821;50.936;6.854;2023-05-02T03:58:31;46.20;;;31.15;;
3613;SDS011;1821;50.936;6.854;2023-05-02T03:59:15;44.65;;;30.50;;
3613;SDS011;1821;50.936;6.854;2023-05-02T03:59:57;47.83;;;32.05;;
3613;SDS011;1821;50.936;6.854;2023-05-02T04:00:40;43.70;;;30.77;;
3613;SDS011;1821;50.936;6.854;2023-05-02T04:01:22;44.35;;;32.10;;
3613;SDS011;1821;50.936;6.854;2023-05-02T04:02:03;42.90;;;31.42;;
3613;SDS011;1821;50.936;6.854;2023-05-02T04:02:46;44.20;;;31.90;;
3613;SDS011;1821;50.936;6.854;2023-05-02T04:03:28;45.22;;;32.03;;
3613;SDS011;1821;50.936;6.854;2023-05-02T04:04:12;43.90;;;31.02;;
3613;SDS011;1821;50.936;6.854;2023-05-02T04:04:54;43.92;;;32.05;;
3613;SDS011;1821;50.936;6.854;2023-05-02T04:05:36;41.35;;;32.20;;
3613;SDS011;1821;50.936;6.854;2023-05-02T04:06:18;42.72;;;31.30;;
3613;SDS011;1821;50.936;6.854;2023-05-02T04:07:02;43.60;;;30.40;;
3613;SDS011;1821;50.936;6.854;2023-05-02T04:07:45;42.08;;;30.90;;
3613;SDS011;1821;50.936;6.854;2023-05-02T04:08:27;43.28;;;31.80;;
3613;SDS011;1821;50.936;6.854;2023-05-02T04:09:09;43.97;;;32.35;;
3613;SDS011;1821;50.936;6.854;2023-05-02T04:09:52;42.95;;;32.15;;
3613;SDS011;1821;50.936;6.854;2023-05-02T04:10:33;41.72;;;32.17;;
3613;SDS011;1821;50.936;6.854;2023-05-02T04:11:15;40.85;;;31.13;;
3613;SDS011;1821;50.936;6.854;2023-05-02T04:11:57;45.15;;;33.00;;
3613;SDS011;1821;50.936;6.854;2023-05-02T04:12:39;44.15;;;31.15;;
3613;SDS011;1821;50.936;6.854;2023-05-02T04:13:24;45.75;;;32.63;;
3613;SDS011;1821;50.936;6.854;2023-05-02T04:14:06;44.28;;;32.53;;
3613;SDS011;1821;50.936;6.854;2023-05-02T04:14:48;49.92;;;32.92;;
3613;SDS011;1821;50.936;6.854;2023-05-02T04:15:30;47.65;;;33.20;;
3613;SDS011;1821;50.936;6.854;2023-05-02T04:16:12;44.33;;;33.17;;
3613;SDS011;1821;50.936;6.854;2023-05-02T04:16:54;45.47;;;32.53;;
3613;SDS011;1821;50.936;6.854;2023-05-02T04:17:36;45.78;;;31.75;;
3613;SDS011;1821;50.936;6.854;2023-05-02T04:18:19;44.40;;;32.67;;
3613;SDS011;1821;50.936;6.854;2023-05-02T04:19:01;43.85;;;33.00;;
3613;SDS011;1821;50.936;6.854;2023-05-02T04:19:43;43.25;;;32.20;;
3613;SDS011;1821;50.936;6.854;2023-05-02T04:20:27;46.42;;;32.20;;
3613;SDS011;1821;50.936;6.854;2023-05-02T04:21:10;48.30;;;34.08;;
3613;SDS011;1821;50.936;6.854;2023-05-02T04:21:52;47.07;;;33.60;;
3613;SDS011;1821;50.936;6.854;2023-05-02T04:22:34;42.00;;;31.48;;
3613;SDS011;1821;50.936;6.854;2023-05-02T04:23:16;44.40;;;30.67;;
3613;SDS011;1821;50.936;6.854;2023-05-02T04:23:58;44.05;;;30.92;;
3613;SDS011;1821;50.936;6.854;2023-05-02T04:24:40;46.58;;;33.65;;
3613;SDS011;1821;50.936;6.854;2023-05-02T04:25:22;45.65;;;32.25;;
3613;SDS011;1821;50.936;6.854;2023-05-02T04:26:04;43.97;;;31.63;;
3613;SDS011;1821;50.936;6.854;2023-05-02T04:26:47;43.67;;;31.38;;
3613;SDS011;1821;50.936;6.854;2023-05-02T04:27:29;45.30;;;32.50;;
3613;SDS011;1821;50.936;6.854;2023-05-02T04:28:11;46.38;;;33.05;;
3613;SDS011;1821;50.936;6.854;2023-05-02T04:28:53;46.58;;;32.22;;
3613;SDS011;1821;50.936;6.854;2023-05-02T04:29:37;42.05;;;31.08;;
3613;SDS011;1821;50.936;6.854;2023-05-02T04:30:19;42.42;;;31.13;;
3613;SDS011;1821;50.936;6.854;2023-05-02T04:31:01;41.78;;;30.80;;
3613;SDS011;1821;50.936;6.854;2023-05-02T04:31:44;41.83;;;31.38;;
3613;SDS011;1821;50.936;6.854;2023-05-02T04:32:29;43.90;;;31.23;;
3613;SDS011;1821;50.936;6.854;2023-05-02T04:33:11;42.63;;;31.08;;
3613;SDS011;1821;50.936;6.854;2023-05-02T04:33:53;45.25;;;31.42;;
3613;SDS011;1821;50.936;6.854;2023-05-02T04:34:35;44.88;;;31.15;;
3613;SDS011;1821;50.936;6.854;2023-05-02T04:35:17;41.22;;;30.45;;
3613;SDS011;1821;50.936;6.854;2023-05-02T04:36:00;46.00;;;31.15;;
3613;SDS011;1821;50.936;6.854;2023-05-02T04:36:43;41.90;;;29.75;;
3613;SDS011;1821;50.936;6.854;2023-05-02T04:37:26;43.50;;;30.60;;
3613;SDS011;1821;50.936;6.854;2023-05-02T04:38:08;42.33;;;30.70;;
3613;SDS011;1821;50.936;6.854;2023-05-02T04:38:50;40.85;;;30.40;;
3613;SDS011;1821;50.936;6.854;2023-05-02T04:39:32;41.03;;;29.70;;
3613;SDS011;1821;50.936;6.854;2023-05-02T04:40:17;40.65;;;31.38;;
3613;SDS011;1821;50.936;6.854;2023-05-02T04:40:59;40.22;;;29.48;;
3613;SDS011;1821;50.936;6.854;2023-05-02T04:41:49;41.00;;;30.10;;
3613;SDS011;1821;50.936;6.854;2023-05-02T04:42:31;41.13;;;30.45;;
3613;SDS011;1821;50.936;6.854;2023-05-02T04:43:13;42.67;;;30.38;;
3613;SDS011;1821;50.936;6.854;2023-05-02T04:43:55;45.78;;;31.05;;
3613;SDS011;1821;50.936;6.854;2023-05-02T04:44:37;43.00;;;30.70;;
3613;SDS011;1821;50.936;6.854;2023-05-02T04:45:19;43.33;;;32.40;;
3613;SDS011;1821;50.936;6.854;2023-05-02T04:46:03;42.60;;;30.52;;
3613;SDS011;1821;50.936;6.854;2023-05-02T04:46:45;48.33;;;33.08;;
3613;SDS011;1821;50.936;6.854;2023-05-02T04:47:27;39.55;;;30.38;;
3613;SDS011;1821;50.936;6.854;2023-05-02T04:48:09;40.13;;;29.25;;
3613;SDS011;1821;50.936;6.854;2023-05-02T04:48:52;43.55;;;29.90;;
3613;SDS011;1821;50.936;6.854;2023-05-02T04:49:34;44.63;;;30.15;;
3613;SDS011;1821;50.936;6.854;2023-05-02T04:50:16;42.47;;;30.67;;
3613;SDS011;1821;50.936;6.854;2023-05-02T04:50:58;40.03;;;30.00;;
3613;SDS011;1821;50.936;6.854;2023-05-02T04:51:40;43.30;;;30.52;;